sensor_id;sensor_type;location;lat;lon;timestamp;pressure;altitude;pressure_sealevel;temperature;humidity
14966;BME280;7577;45.226;5.798;2023-03-25T00:01:51;99212.80;;;20.90;52.98
14966;BME280;7577;45.226;5.798;2023-03-25T00:04:21;99221.91;;;20.91;52.95
14966;BME280;7577;45.226;5.798;2023-03-25T00:09:32;99220.52;;;20.91;53.03
14966;BME280;7577;45.226;5.798;2023-03-25T00:12:02;99212.85;;;20.88;53.00
14966;BME280;7577;45.226;5.798;2023-03-25T00:14:32;99212.03;;;20.87;53.05
14966;BME280;7577;45.226;5.798;2023-03-25T00:17:03;99218.71;;;20.86;53.06
14966;BME280;7577;45.226;5.798;2023-03-25T00:22:12;99227.84;;;20.87;53.01
14966;BME280;7577;45.226;5.798;2023-03-25T00:24:43;99227.58;;;20.86;53.03
14966;BME280;7577;45.226;5.798;2023-03-25T00:27:14;99232.88;;;20.85;53.00
14966;BME280;7577;45.226;5.798;2023-03-25T00:29:45;99245.84;;;20.87;52.93
14966;BME280;7577;45.226;5.798;2023-03-25T00:32:16;99243.63;;;20.86;52.93
14966;BME280;7577;45.226;5.798;2023-03-25T00:37:26;99243.63;;;20.86;52.89
14966;BME280;7577;45.226;5.798;2023-03-25T00:39:55;99240.70;;;20.83;52.89
14966;BME280;7577;45.226;5.798;2023-03-25T00:45:08;99248.19;;;20.82;52.90
14966;BME280;7577;45.226;5.798;2023-03-25T00:47:39;99246.33;;;20.80;52.89
14966;BME280;7577;45.226;5.798;2023-03-25T00:52:48;99242.17;;;20.80;52.91
14966;BME280;7577;45.226;5.798;2023-03-25T00:55:21;99244.44;;;20.78;52.82
14966;BME280;7577;45.226;5.798;2023-03-25T00:57:51;99244.44;;;20.78;52.80
14966;BME280;7577;45.226;5.798;2023-03-25T01:00:22;99240.87;;;20.78;52.79
14966;BME280;7577;45.226;5.798;2023-03-25T01:05:30;99235.57;;;20.79;52.68
14966;BME280;7577;45.226;5.798;2023-03-25T01:08:00;99243.21;;;20.73;52.74
14966;BME280;7577;45.226;5.798;2023-03-25T01:10:31;99244.27;;;20.75;52.68
14966;BME280;7577;45.226;5.798;2023-03-25T01:13:02;99254.84;;;20.73;52.66
14966;BME280;7577;45.226;5.798;2023-03-25T01:15:32;99261.77;;;20.73;52.63
14966;BME280;7577;45.226;5.798;2023-03-25T01:20:41;99255.11;;;20.74;52.61
14966;BME280;7577;45.226;5.798;2023-03-25T01:25:49;99247.92;;;20.73;52.51
14966;BME280;7577;45.226;5.798;2023-03-25T01:28:20;99248.83;;;20.71;52.50
14966;BME280;7577;45.226;5.798;2023-03-25T01:30:51;99247.52;;;20.68;52.52
14966;BME280;7577;45.226;5.798;2023-03-25T01:36:01;99250.21;;;20.71;52.41
14966;BME280;7577;45.226;5.798;2023-03-25T01:38:32;99249.55;;;20.65;52.50
14966;BME280;7577;45.226;5.798;2023-03-25T01:41:04;99261.20;;;20.65;52.51
14966;BME280;7577;45.226;5.798;2023-03-25T01:43:35;99254.59;;;20.63;52.53
14966;BME280;7577;45.226;5.798;2023-03-25T01:46:06;99257.37;;;20.63;52.52
14966;BME280;7577;45.226;5.798;2023-03-25T01:48:39;99259.07;;;20.62;52.52
14966;BME280;7577;45.226;5.798;2023-03-25T01:53:51;99268.44;;;20.63;52.44
14966;BME280;7577;45.226;5.798;2023-03-25T01:56:24;99270.70;;;20.61;52.47
14966;BME280;7577;45.226;5.798;2023-03-25T01:58:55;99269.55;;;20.62;52.42
14966;BME280;7577;45.226;5.798;2023-03-25T02:01:25;99270.14;;;20.62;52.39
14966;BME280;7577;45.226;5.798;2023-03-25T02:03:55;99266.86;;;20.60;52.42
14966;BME280;7577;45.226;5.798;2023-03-25T02:06:32;99268.25;;;20.60;52.37
14966;BME280;7577;45.226;5.798;2023-03-25T02:11:43;99272.67;;;20.61;52.34
14966;BME280;7577;45.226;5.798;2023-03-25T02:14:15;99279.08;;;20.59;52.34
14966;BME280;7577;45.226;5.798;2023-03-25T02:28:34;99276.07;;;20.58;52.20
14966;BME280;7577;45.226;5.798;2023-03-25T02:31:26;99277.77;;;20.56;52.15
14966;BME280;7577;45.226;5.798;2023-03-25T02:37:27;99258.23;;;20.53;52.17
14966;BME280;7577;45.226;5.798;2023-03-25T02:42:45;99259.86;;;20.54;52.09
14966;BME280;7577;45.226;5.798;2023-03-25T02:45:17;99253.58;;;20.51;52.08
14966;BME280;7577;45.226;5.798;2023-03-25T02:47:51;99246.66;;;20.51;52.06
14966;BME280;7577;45.226;5.798;2023-03-25T02:50:24;99248.39;;;20.49;52.10
14966;BME280;7577;45.226;5.798;2023-03-25T02:52:57;99250.64;;;20.47;52.07
14966;BME280;7577;45.226;5.798;2023-03-25T02:55:29;99252.19;;;20.51;51.97
14966;BME280;7577;45.226;5.798;2023-03-25T02:58:04;99261.40;;;20.49;52.01
14966;BME280;7577;45.226;5.798;2023-03-25T03:00:35;99257.25;;;20.49;51.95
14966;BME280;7577;45.226;5.798;2023-03-25T03:03:07;99257.25;;;20.49;51.96
14966;BME280;7577;45.226;5.798;2023-03-25T03:05:40;99260.02;;;20.49;51.89
14966;BME280;7577;45.226;5.798;2023-03-25T03:08:22;99260.25;;;20.50;51.90
14966;BME280;7577;45.226;5.798;2023-03-25T03:10:56;99271.64;;;20.48;51.88
14966;BME280;7577;45.226;5.798;2023-03-25T03:13:31;99271.91;;;20.49;51.87
14966;BME280;7577;45.226;5.798;2023-03-25T03:16:03;99272.47;;;20.49;51.86
14966;BME280;7577;45.226;5.798;2023-03-25T03:18:41;99266.38;;;20.49;51.81
14966;BME280;7577;45.226;5.798;2023-03-25T03:21:14;99279.63;;;20.50;51.79
14966;BME280;7577;45.226;5.798;2023-03-25T03:23:58;99284.09;;;20.48;51.81
14966;BME280;7577;45.226;5.798;2023-03-25T03:26:27;99280.53;;;20.48;51.79
14966;BME280;7577;45.226;5.798;2023-03-25T03:29:02;99274.68;;;20.49;51.75
14966;BME280;7577;45.226;5.798;2023-03-25T03:31:35;99266.94;;;20.49;51.76
14966;BME280;7577;45.226;5.798;2023-03-25T03:36:52;99260.57;;;20.48;51.79
14966;BME280;7577;45.226;5.798;2023-03-25T03:39:26;99253.17;;;20.46;51.77
14966;BME280;7577;45.226;5.798;2023-03-25T03:41:59;99254.31;;;20.45;51.74
14966;BME280;7577;45.226;5.798;2023-03-25T03:44:32;99257.56;;;20.47;51.72
14966;BME280;7577;45.226;5.798;2023-03-25T03:47:06;99259.27;;;20.46;51.71
14966;BME280;7577;45.226;5.798;2023-03-25T03:49:39;99271.95;;;20.47;51.72
14966;BME280;7577;45.226;5.798;2023-03-25T03:52:12;99262.62;;;20.45;51.67
14966;BME280;7577;45.226;5.798;2023-03-25T03:54:47;99261.23;;;20.45;51.64
14966;BME280;7577;45.226;5.798;2023-03-25T03:57:20;99259.27;;;20.46;51.64
14966;BME280;7577;45.226;5.798;2023-03-25T03:59:55;99267.09;;;20.44;51.66
14966;BME280;7577;45.226;5.798;2023-03-25T04:05:08;99263.09;;;20.47;51.56
14966;BME280;7577;45.226;5.798;2023-03-25T04:07:42;99265.11;;;20.44;51.56
14966;BME280;7577;45.226;5.798;2023-03-25T04:10:15;99267.33;;;20.45;51.53
14966;BME280;7577;45.226;5.798;2023-03-25T04:12:48;99267.80;;;20.47;51.45
14966;BME280;7577;45.226;5.798;2023-03-25T04:15:20;99281.72;;;20.44;51.46
14966;BME280;7577;45.226;5.798;2023-03-25T04:17:50;99275.39;;;20.44;51.46
14966;BME280;7577;45.226;5.798;2023-03-25T04:20:22;99272.62;;;20.44;51.44
14966;BME280;7577;45.226;5.798;2023-03-25T04:22:54;99268.47;;;20.44;51.37
14966;BME280;7577;45.226;5.798;2023-03-25T04:25:24;99271.00;;;20.43;51.37
14966;BME280;7577;45.226;5.798;2023-03-25T04:27:54;99269.61;;;20.43;51.32
14966;BME280;7577;45.226;5.798;2023-03-25T04:30:26;99269.85;;;20.44;51.26
14966;BME280;7577;45.226;5.798;2023-03-25T04:32:57;99273.17;;;20.43;51.24
14966;BME280;7577;45.226;5.798;2023-03-25T04:35:28;99266.02;;;20.42;51.25
14966;BME280;7577;45.226;5.798;2023-03-25T04:37:59;99269.34;;;20.42;51.20
14966;BME280;7577;45.226;5.798;2023-03-25T04:40:29;99268.55;;;20.41;51.20
14966;BME280;7577;45.226;5.798;2023-03-25T04:43:00;99276.58;;;20.40;51.18
14966;BME280;7577;45.226;5.798;2023-03-25T04:45:30;99281.55;;;20.41;51.14
14966;BME280;7577;45.226;5.798;2023-03-25T04:48:02;99294.08;;;20.38;51.16
14966;BME280;7577;45.226;5.798;2023-03-25T04:50:33;99297.16;;;20.37;51.17
14966;BME280;7577;45.226;5.798;2023-03-25T04:53:04;99297.41;;;20.38;51.14
14966;BME280;7577;45.226;5.798;2023-03-25T04:55:34;99295.78;;;20.37;51.11
14966;BME280;7577;45.226;5.798;2023-03-25T04:58:04;99302.38;;;20.38;51.09
14966;BME280;7577;45.226;5.798;2023-03-25T05:00:35;99311.58;;;20.36;51.09
14966;BME280;7577;45.226;5.798;2023-03-25T05:03:07;99318.73;;;20.37;51.05
14966;BME280;7577;45.226;5.798;2023-03-25T05:05:39;99322.89;;;20.37;51.05
14966;BME280;7577;45.226;5.798;2023-03-25T05:08:10;99329.57;;;20.36;51.02
14966;BME280;7577;45.226;5.798;2023-03-25T05:10:40;99321.58;;;20.35;51.08
14966;BME280;7577;45.226;5.798;2023-03-25T05:13:11;99321.50;;;20.37;50.98
14966;BME280;7577;45.226;5.798;2023-03-25T05:15:41;99322.89;;;20.37;50.94
14966;BME280;7577;45.226;5.798;2023-03-25T05:18:13;99329.50;;;20.39;50.90
14966;BME280;7577;45.226;5.798;2023-03-25T05:20:45;99334.20;;;20.38;50.90
14966;BME280;7577;45.226;5.798;2023-03-25T05:23:17;99341.36;;;20.39;50.83
14966;BME280;7577;45.226;5.798;2023-03-25T05:25:50;99333.57;;;20.41;50.78
14966;BME280;7577;45.226;5.798;2023-03-25T05:30:58;99328.76;;;20.44;50.71
14966;BME280;7577;45.226;5.798;2023-03-25T05:33:28;99332.12;;;20.44;50.70
14966;BME280;7577;45.226;5.798;2023-03-25T05:35:59;99336.51;;;20.45;50.65
14966;BME280;7577;45.226;5.798;2023-03-25T05:38:30;99338.45;;;20.44;50.63
14966;BME280;7577;45.226;5.798;2023-03-25T05:41:00;99342.52;;;20.47;50.57
14966;BME280;7577;45.226;5.798;2023-03-25T05:43:30;99332.04;;;20.46;50.54
14966;BME280;7577;45.226;5.798;2023-03-25T05:46:02;99339.72;;;20.49;50.53
14966;BME280;7577;45.226;5.798;2023-03-25T05:48:33;99336.13;;;20.49;50.49
14966;BME280;7577;45.226;5.798;2023-03-25T05:51:05;99339.38;;;20.51;50.46
14966;BME280;7577;45.226;5.798;2023-03-25T05:53:35;99342.14;;;20.51;50.42
14966;BME280;7577;45.226;5.798;2023-03-25T05:56:07;99342.41;;;20.52;50.35
14966;BME280;7577;45.226;5.798;2023-03-25T05:58:37;99349.57;;;20.53;50.29
14966;BME280;7577;45.226;5.798;2023-03-25T06:01:09;99361.36;;;20.56;50.27
14966;BME280;7577;45.226;5.798;2023-03-25T06:03:41;99357.80;;;20.55;50.27
14966;BME280;7577;45.226;5.798;2023-03-25T06:06:13;99366.89;;;20.56;50.18
14966;BME280;7577;45.226;5.798;2023-03-25T06:08:46;99366.58;;;20.57;50.16
14966;BME280;7577;45.226;5.798;2023-03-25T06:11:18;99358.55;;;20.58;50.12
14966;BME280;7577;45.226;5.798;2023-03-25T06:13:49;99354.95;;;20.58;50.08
14966;BME280;7577;45.226;5.798;2023-03-25T06:16:20;99354.64;;;20.59;50.08
14966;BME280;7577;45.226;5.798;2023-03-25T06:18:51;99354.64;;;20.59;50.00
14966;BME280;7577;45.226;5.798;2023-03-25T06:21:24;99364.25;;;20.62;49.95
14966;BME280;7577;45.226;5.798;2023-03-25T06:26:35;99369.41;;;20.66;49.89
14966;BME280;7577;45.226;5.798;2023-03-25T06:29:05;99369.41;;;20.66;49.85
14966;BME280;7577;45.226;5.798;2023-03-25T06:31:37;99372.09;;;20.68;49.78
14966;BME280;7577;45.226;5.798;2023-03-25T06:36:47;99370.56;;;20.73;49.61
14966;BME280;7577;45.226;5.798;2023-03-25T06:39:18;99378.04;;;20.73;49.62
14966;BME280;7577;45.226;5.798;2023-03-25T06:41:48;99384.96;;;20.73;49.55
14966;BME280;7577;45.226;5.798;2023-03-25T06:44:19;99389.70;;;20.72;49.51
14966;BME280;7577;45.226;5.798;2023-03-25T06:46:49;99392.39;;;20.75;49.45
14966;BME280;7577;45.226;5.798;2023-03-25T06:49:21;99397.63;;;20.76;49.33
14966;BME280;7577;45.226;5.798;2023-03-25T06:51:52;99408.11;;;20.77;49.33
14966;BME280;7577;45.226;5.798;2023-03-25T06:54:22;99398.10;;;20.78;49.32
14966;BME280;7577;45.226;5.798;2023-03-25T06:56:52;99389.16;;;20.81;49.29
14966;BME280;7577;45.226;5.798;2023-03-25T06:59:22;99379.71;;;20.82;49.27
14966;BME280;7577;45.226;5.798;2023-03-25T07:01:52;99377.19;;;20.83;49.23
14966;BME280;7577;45.226;5.798;2023-03-25T07:04:23;99372.72;;;20.85;49.30
14966;BME280;7577;45.226;5.798;2023-03-25T07:06:53;99373.78;;;20.86;49.31
14966;BME280;7577;45.226;5.798;2023-03-25T07:09:23;99375.92;;;20.89;49.39
14966;BME280;7577;45.226;5.798;2023-03-25T07:11:54;99373.91;;;20.92;49.79
14966;BME280;7577;45.226;5.798;2023-03-25T07:14:24;99353.32;;;20.96;49.89
14966;BME280;7577;45.226;5.798;2023-03-25T07:16:54;99346.32;;;20.98;49.91
14966;BME280;7577;45.226;5.798;2023-03-25T07:19:25;99346.80;;;21.00;49.96
14966;BME280;7577;45.226;5.798;2023-03-25T07:21:55;99342.56;;;21.03;49.92
14966;BME280;7577;45.226;5.798;2023-03-25T07:27:03;99354.55;;;21.09;49.95
14966;BME280;7577;45.226;5.798;2023-03-25T07:29:33;99357.64;;;21.08;49.98
14966;BME280;7577;45.226;5.798;2023-03-25T07:32:05;99362.07;;;21.09;49.96
14966;BME280;7577;45.226;5.798;2023-03-25T07:34:35;99355.38;;;21.10;50.24
14966;BME280;7577;45.226;5.798;2023-03-25T07:39:47;99361.91;;;21.14;50.83
14966;BME280;7577;45.226;5.798;2023-03-25T07:42:18;99368.33;;;21.12;50.91
14966;BME280;7577;45.226;5.798;2023-03-25T07:44:48;99364.17;;;21.12;50.93
14966;BME280;7577;45.226;5.798;2023-03-25T07:47:20;99366.63;;;21.13;50.85
14966;BME280;7577;45.226;5.798;2023-03-25T07:49:50;99366.63;;;21.13;50.72
14966;BME280;7577;45.226;5.798;2023-03-25T07:52:20;99384.63;;;21.13;50.72
14966;BME280;7577;45.226;5.798;2023-03-25T07:54:50;99382.09;;;21.14;50.65
14966;BME280;7577;45.226;5.798;2023-03-25T07:57:20;99381.22;;;21.16;50.51
14966;BME280;7577;45.226;5.798;2023-03-25T07:59:50;99377.06;;;21.16;50.44
14966;BME280;7577;45.226;5.798;2023-03-25T08:02:20;99379.77;;;21.19;50.34
14966;BME280;7577;45.226;5.798;2023-03-25T08:04:51;99388.31;;;21.20;50.48
14966;BME280;7577;45.226;5.798;2023-03-25T08:07:22;99392.39;;;21.22;50.39
14966;BME280;7577;45.226;5.798;2023-03-25T08:09:52;99388.82;;;21.22;50.41
14966;BME280;7577;45.226;5.798;2023-03-25T08:12:23;99394.52;;;21.25;50.34
14966;BME280;7577;45.226;5.798;2023-03-25T08:14:53;99391.16;;;21.26;50.26
14966;BME280;7577;45.226;5.798;2023-03-25T08:17:23;99385.58;;;21.28;50.16
14966;BME280;7577;45.226;5.798;2023-03-25T08:22:31;99387.12;;;21.32;49.92
14966;BME280;7577;45.226;5.798;2023-03-25T08:25:02;99389.73;;;21.28;50.00
14966;BME280;7577;45.226;5.798;2023-03-25T08:27:32;99393.05;;;21.28;50.07
14966;BME280;7577;45.226;5.798;2023-03-25T08:30:03;99398.68;;;21.25;50.17
14966;BME280;7577;45.226;5.798;2023-03-25T08:35:12;99407.47;;;21.27;50.44
14966;BME280;7577;45.226;5.798;2023-03-25T08:37:42;99409.45;;;21.27;50.85
14966;BME280;7577;45.226;5.798;2023-03-25T08:40:12;99414.91;;;21.29;50.93
14966;BME280;7577;45.226;5.798;2023-03-25T08:45:23;99423.94;;;21.32;50.79
14966;BME280;7577;45.226;5.798;2023-03-25T08:47:53;99422.83;;;21.33;50.67
14966;BME280;7577;45.226;5.798;2023-03-25T08:50:23;99417.28;;;21.33;50.59
14966;BME280;7577;45.226;5.798;2023-03-25T08:52:53;99413.36;;;21.34;50.50
14966;BME280;7577;45.226;5.798;2023-03-25T08:55:26;99423.06;;;21.34;50.42
14966;BME280;7577;45.226;5.798;2023-03-25T09:00:34;99428.52;;;21.37;50.22
14966;BME280;7577;45.226;5.798;2023-03-25T09:03:06;99430.55;;;21.34;50.15
14966;BME280;7577;45.226;5.798;2023-03-25T09:05:37;99426.66;;;21.35;50.18
14966;BME280;7577;45.226;5.798;2023-03-25T09:08:07;99423.89;;;21.35;50.07
14966;BME280;7577;45.226;5.798;2023-03-25T09:10:38;99414.98;;;21.35;50.02
14966;BME280;7577;45.226;5.798;2023-03-25T09:13:08;99411.42;;;21.35;49.94
14966;BME280;7577;45.226;5.798;2023-03-25T09:15:38;99408.30;;;21.36;49.82
14966;BME280;7577;45.226;5.798;2023-03-25T09:18:08;99420.77;;;21.36;49.79
14966;BME280;7577;45.226;5.798;2023-03-25T09:20:38;99417.76;;;21.35;49.73
14966;BME280;7577;45.226;5.798;2023-03-25T09:23:09;99419.14;;;21.35;49.71
14966;BME280;7577;45.226;5.798;2023-03-25T09:25:40;99411.73;;;21.33;49.66
14966;BME280;7577;45.226;5.798;2023-03-25T09:28:12;99406.44;;;21.34;49.59
14966;BME280;7577;45.226;5.798;2023-03-25T09:30:42;99404.49;;;21.35;49.53
14966;BME280;7577;45.226;5.798;2023-03-25T09:35:52;99387.78;;;21.37;49.41
14966;BME280;7577;45.226;5.798;2023-03-25T09:38:22;99395.83;;;21.36;49.36
14966;BME280;7577;45.226;5.798;2023-03-25T09:40:52;99395.27;;;21.37;49.29
14966;BME280;7577;45.226;5.798;2023-03-25T09:43:30;99396.41;;;21.36;49.22
14966;BME280;7577;45.226;5.798;2023-03-25T09:46:00;99395.51;;;21.38;49.13
14966;BME280;7577;45.226;5.798;2023-03-25T09:48:35;99399.91;;;21.39;49.04
14966;BME280;7577;45.226;5.798;2023-03-25T09:51:09;99394.63;;;21.40;48.98
14966;BME280;7577;45.226;5.798;2023-03-25T09:53:43;99389.09;;;21.40;48.91
14966;BME280;7577;45.226;5.798;2023-03-25T09:56:16;99384.93;;;21.40;48.83
14966;BME280;7577;45.226;5.798;2023-03-25T09:58:48;99382.95;;;21.40;48.72
14966;BME280;7577;45.226;5.798;2023-03-25T10:01:27;99371.87;;;21.40;48.68
14966;BME280;7577;45.226;5.798;2023-03-25T10:04:10;99367.98;;;21.41;48.62
14966;BME280;7577;45.226;5.798;2023-03-25T10:06:43;99370.48;;;21.40;48.53
14966;BME280;7577;45.226;5.798;2023-03-25T10:09:33;99366.83;;;21.42;48.48
14966;BME280;7577;45.226;5.798;2023-03-25T10:12:11;99373.09;;;21.45;48.38
14966;BME280;7577;45.226;5.798;2023-03-25T10:17:27;99362.52;;;21.47;48.22
14966;BME280;7577;45.226;5.798;2023-03-25T10:22:41;99356.48;;;21.54;48.00
14966;BME280;7577;45.226;5.798;2023-03-25T10:27:51;99357.55;;;21.55;47.77
14966;BME280;7577;45.226;5.798;2023-03-25T10:30:23;99357.27;;;21.54;47.73
14966;BME280;7577;45.226;5.798;2023-03-25T10:32:56;99358.10;;;21.55;47.67
14966;BME280;7577;45.226;5.798;2023-03-25T10:35:29;99361.94;;;21.56;47.61
14966;BME280;7577;45.226;5.798;2023-03-25T10:40:41;99374.09;;;21.58;47.51
14966;BME280;7577;45.226;5.798;2023-03-25T10:43:17;99377.19;;;21.56;47.45
14966;BME280;7577;45.226;5.798;2023-03-25T10:45:48;99364.47;;;21.55;47.40
14966;BME280;7577;45.226;5.798;2023-03-25T10:48:23;99365.27;;;21.56;47.35
14966;BME280;7577;45.226;5.798;2023-03-25T10:50:57;99361.70;;;21.55;47.27
14966;BME280;7577;45.226;5.798;2023-03-25T10:53:28;99362.02;;;21.54;47.29
14966;BME280;7577;45.226;5.798;2023-03-25T10:56:02;99356.72;;;21.55;47.24
14966;BME280;7577;45.226;5.798;2023-03-25T10:58:34;99352.80;;;21.56;47.17
14966;BME280;7577;45.226;5.798;2023-03-25T11:01:11;99356.72;;;21.55;47.15
14966;BME280;7577;45.226;5.798;2023-03-25T11:03:43;99355.56;;;21.56;47.08
14966;BME280;7577;45.226;5.798;2023-03-25T11:06:20;99342.53;;;21.56;47.06
14966;BME280;7577;45.226;5.798;2023-03-25T11:09:10;99336.67;;;21.58;47.00
14966;BME280;7577;45.226;5.798;2023-03-25T11:11:42;99333.66;;;21.57;46.92
14966;BME280;7577;45.226;5.798;2023-03-25T11:14:12;99340.42;;;21.62;46.84
14966;BME280;7577;45.226;5.798;2023-03-25T11:16:45;99343.75;;;21.61;46.79
14966;BME280;7577;45.226;5.798;2023-03-25T11:21:59;99338.13;;;21.64;46.74
14966;BME280;7577;45.226;5.798;2023-03-25T11:27:14;99319.54;;;21.64;46.65
14966;BME280;7577;45.226;5.798;2023-03-25T11:29:51;99317.56;;;21.65;46.53
14966;BME280;7577;45.226;5.798;2023-03-25T11:32:30;99311.69;;;21.66;46.45
14966;BME280;7577;45.226;5.798;2023-03-25T11:34:56;99319.92;;;21.69;46.42
14966;BME280;7577;45.226;5.798;2023-03-25T11:37:29;99319.69;;;21.68;46.40
14966;BME280;7577;45.226;5.798;2023-03-25T11:40:04;99315.05;;;21.66;46.37
14966;BME280;7577;45.226;5.798;2023-03-25T11:42:37;99313.91;;;21.67;46.26
14966;BME280;7577;45.226;5.798;2023-03-25T11:45:19;99302.22;;;21.67;46.24
14966;BME280;7577;45.226;5.798;2023-03-25T11:47:50;99306.98;;;21.67;46.14
14966;BME280;7577;45.226;5.798;2023-03-25T11:50:24;99304.14;;;21.69;46.08
14966;BME280;7577;45.226;5.798;2023-03-25T11:52:58;99303.59;;;21.70;46.05
14966;BME280;7577;45.226;5.798;2023-03-25T11:55:30;99298.05;;;21.70;46.01
14966;BME280;7577;45.226;5.798;2023-03-25T11:58:01;99300.52;;;21.69;46.01
14966;BME280;7577;45.226;5.798;2023-03-25T12:03:20;99304.97;;;21.70;45.90
14966;BME280;7577;45.226;5.798;2023-03-25T12:05:59;99307.98;;;21.71;45.83
14966;BME280;7577;45.226;5.798;2023-03-25T12:08:39;99298.19;;;21.73;45.73
14966;BME280;7577;45.226;5.798;2023-03-25T12:11:06;99283.73;;;21.74;45.66
14966;BME280;7577;45.226;5.798;2023-03-25T12:13:45;99277.16;;;21.72;45.68
14966;BME280;7577;45.226;5.798;2023-03-25T12:16:23;99270.31;;;21.70;45.69
14966;BME280;7577;45.226;5.798;2023-03-25T12:19:01;99257.54;;;21.69;45.65
14966;BME280;7577;45.226;5.798;2023-03-25T12:21:44;99251.99;;;21.69;45.67
14966;BME280;7577;45.226;5.798;2023-03-25T12:27:07;99245.98;;;21.67;45.55
14966;BME280;7577;45.226;5.798;2023-03-25T12:29:41;99252.77;;;21.63;45.56
14966;BME280;7577;45.226;5.798;2023-03-25T12:32:25;99253.32;;;21.63;45.49
14966;BME280;7577;45.226;5.798;2023-03-25T12:35:05;99247.45;;;21.64;45.42
14966;BME280;7577;45.226;5.798;2023-03-25T12:37:40;99243.62;;;21.63;45.41
14966;BME280;7577;45.226;5.798;2023-03-25T12:40:24;99249.40;;;21.64;45.37
14966;BME280;7577;45.226;5.798;2023-03-25T12:43:00;99243.06;;;21.63;45.40
14966;BME280;7577;45.226;5.798;2023-03-25T12:48:43;99230.49;;;21.66;45.22
14966;BME280;7577;45.226;5.798;2023-03-25T12:51:17;99232.11;;;21.67;45.11
14966;BME280;7577;45.226;5.798;2023-03-25T12:53:53;99238.13;;;21.69;44.97
14966;BME280;7577;45.226;5.798;2023-03-25T12:56:41;99242.82;;;21.71;44.84
14966;BME280;7577;45.226;5.798;2023-03-25T12:59:32;99226.09;;;21.73;44.81
14966;BME280;7577;45.226;5.798;2023-03-25T13:02:10;99221.84;;;21.76;44.80
14966;BME280;7577;45.226;5.798;2023-03-25T13:04:52;99212.60;;;21.78;44.77
14966;BME280;7577;45.226;5.798;2023-03-25T13:07:24;99209.18;;;21.81;44.88
14966;BME280;7577;45.226;5.798;2023-03-25T13:10:02;99200.11;;;21.86;45.09
14966;BME280;7577;45.226;5.798;2023-03-25T13:12:33;99200.48;;;21.91;45.21
14966;BME280;7577;45.226;5.798;2023-03-25T13:15:12;99193.63;;;21.97;45.05
14966;BME280;7577;45.226;5.798;2023-03-25T13:17:44;99200.06;;;21.95;44.96
14966;BME280;7577;45.226;5.798;2023-03-25T13:20:16;99190.95;;;21.94;44.94
14966;BME280;7577;45.226;5.798;2023-03-25T13:22:49;99186.62;;;21.91;45.06
14966;BME280;7577;45.226;5.798;2023-03-25T13:25:25;99186.38;;;21.90;45.04
14966;BME280;7577;45.226;5.798;2023-03-25T13:27:57;99188.92;;;21.89;45.08
14966;BME280;7577;45.226;5.798;2023-03-25T13:30:31;99186.15;;;21.89;45.00
14966;BME280;7577;45.226;5.798;2023-03-25T13:33:06;99184.86;;;21.86;45.04
14966;BME280;7577;45.226;5.798;2023-03-25T13:35:41;99186.25;;;21.86;45.03
14966;BME280;7577;45.226;5.798;2023-03-25T13:38:16;99183.80;;;21.85;45.05
14966;BME280;7577;45.226;5.798;2023-03-25T13:40:50;99184.86;;;21.86;45.04
14966;BME280;7577;45.226;5.798;2023-03-25T13:43:25;99195.36;;;21.87;45.03
14966;BME280;7577;45.226;5.798;2023-03-25T13:45:58;99190.31;;;21.89;45.02
14966;BME280;7577;45.226;5.798;2023-03-25T13:48:32;99191.11;;;21.89;44.90
14966;BME280;7577;45.226;5.798;2023-03-25T13:51:04;99196.00;;;21.92;44.82
14966;BME280;7577;45.226;5.798;2023-03-25T13:53:38;99188.41;;;21.95;44.89
14966;BME280;7577;45.226;5.798;2023-03-25T13:56:30;99188.08;;;21.97;44.88
14966;BME280;7577;45.226;5.798;2023-03-25T14:02:02;99193.30;;;21.98;44.79
14966;BME280;7577;45.226;5.798;2023-03-25T14:05:01;99191.97;;;21.96;44.78
14966;BME280;7577;45.226;5.798;2023-03-25T14:07:55;99189.47;;;21.97;44.75
14966;BME280;7577;45.226;5.798;2023-03-25T14:10:49;99188.31;;;21.98;44.78
14966;BME280;7577;45.226;5.798;2023-03-25T14:13:23;99178.60;;;21.98;44.64
14966;BME280;7577;45.226;5.798;2023-03-25T14:15:59;99181.61;;;21.99;44.58
14966;BME280;7577;45.226;5.798;2023-03-25T14:18:30;99185.77;;;21.99;44.49
14966;BME280;7577;45.226;5.798;2023-03-25T14:24:04;99179.14;;;22.06;44.44
14966;BME280;7577;45.226;5.798;2023-03-25T14:29:20;99169.66;;;22.07;44.46
14966;BME280;7577;45.226;5.798;2023-03-25T14:32:05;99165.27;;;22.06;44.42
14966;BME280;7577;45.226;5.798;2023-03-25T14:34:36;99163.29;;;22.06;44.36
14966;BME280;7577;45.226;5.798;2023-03-25T14:40:44;99145.26;;;22.06;44.27
14966;BME280;7577;45.226;5.798;2023-03-25T14:43:20;99151.50;;;22.03;44.28
14966;BME280;7577;45.226;5.798;2023-03-25T14:46:01;99157.14;;;22.01;44.30
14966;BME280;7577;45.226;5.798;2023-03-25T14:48:33;99154.83;;;22.03;44.16
14966;BME280;7577;45.226;5.798;2023-03-25T14:54:30;99152.34;;;21.95;44.14
14966;BME280;7577;45.226;5.798;2023-03-25T14:57:05;99152.34;;;21.95;44.08
14966;BME280;7577;45.226;5.798;2023-03-25T14:59:38;99157.49;;;21.91;44.12
14966;BME280;7577;45.226;5.798;2023-03-25T15:02:14;99150.00;;;21.91;44.07
14966;BME280;7577;45.226;5.798;2023-03-25T15:04:46;99158.09;;;21.90;44.01
14966;BME280;7577;45.226;5.798;2023-03-25T15:07:19;99161.66;;;21.91;43.97
14966;BME280;7577;45.226;5.798;2023-03-25T15:09:52;99171.95;;;21.90;43.96
14966;BME280;7577;45.226;5.798;2023-03-25T15:12:24;99161.19;;;21.89;43.95
14966;BME280;7577;45.226;5.798;2023-03-25T15:15:02;99156.20;;;21.88;43.89
14966;BME280;7577;45.226;5.798;2023-03-25T15:17:44;99160.36;;;21.88;43.95
14966;BME280;7577;45.226;5.798;2023-03-25T15:20:31;99158.98;;;21.88;43.97
14966;BME280;7577;45.226;5.798;2023-03-25T15:26:13;99151.67;;;21.84;44.00
14966;BME280;7577;45.226;5.798;2023-03-25T15:29:03;99153.72;;;21.81;44.00
14966;BME280;7577;45.226;5.798;2023-03-25T15:34:43;99152.52;;;21.76;44.09
14966;BME280;7577;45.226;5.798;2023-03-25T15:37:34;99150.16;;;21.72;44.13
14966;BME280;7577;45.226;5.798;2023-03-25T15:40:14;99141.59;;;21.62;41.36
14966;BME280;7577;45.226;5.798;2023-03-25T15:46:10;99121.56;;;21.34;37.70
14966;BME280;7577;45.226;5.798;2023-03-25T15:52:02;99144.77;;;21.12;37.16
14966;BME280;7577;45.226;5.798;2023-03-25T15:54:36;99141.94;;;21.06;36.77